Portada
METAR-TAF:

METAR-TAF

Aeroports :

Bagdad, Iraq

latitud: 33-15-45N, longitud: 44-14-04E, altitud: 35 m

Observació

L'informe es va fer fa 11 minuts, a les 02:00 UTC
Vent 8 kt del Nord-Oest
Temperatura 25°C
Humitat 36%
Pressió 1000 hPa
Visibilitat 10 km o més
sense núvols per sota de 1500 mi sense presència de cumulonimbus.

METAR: ORBI 160200Z 32008KT CAVOK 25/09 Q1000 NOSIG

Hora: 05:11 (02:11 UTC)

Pronòstic

L'informe es va fer fa 4 hores i 11 minuts, a les 22:00 UTC
Pronòstic vàlid del 16 a les 00 UTC al 16 a les 24 UTC
Vent 10 kt del Nord-Oest
Visibilitat 10 km o més
sense núvols per sota de 1500 mi sense presència de cumulonimbus.

TAF: ORBI 152200Z 1600/1624 32010KT CAVOK

Observacions i pronòstics meteorològics de més de 4000 aeroports (METAR i TAF).

Les estacions disponibles són els punts grocs i vermells al mapa.

Posi el ratolí al punt desitjat per veure el nom de l'estació.

Feu clic per veure les observacions i els pronòstics meteorològics.

Per canviar el mapa: feu clic els botons verds amb una creu de color negre per apropar; al botó verd amb un guió per allunyar la imatge; o en les fletxes verdes per a mapes adjacents.


METAR-TAF: